AUA42B LEBL-LOWW
Flight info
| Callsign | AUA42B |
|---|---|
| Flight time | 1h 49m |
| Altitude | 30000 |
| Route | AGENA DCT BODEQ DCT LUMAS DCT UNANA DCT STP DCT RAPED DCT PIGOS DCT EKSID DCT NOSTA DCT NOPMU/N0443F360 DCT KOXUD DCT BORMI DCT MALUG/N0442F370 DCT ARALD DCT ABTAN ABTAN2W |
| Aircraft | A321/M-SDE3FGHIRWY/LB1 |
Departure
| Time | 2026-05-04 09:23 |
|---|---|
| Airport | Josep Tarradellas Barcelona-El Prat Airport (LEBL) |
Arrival
| Time | 2026-05-04 11:13 |
|---|---|
| Airport | Vienna International Airport (LOWW) |
| Time | Latitude | Longitude | Altitude | Speed | Heading |
|---|---|---|---|---|---|
| 2026-05-04 08:40 | 41.29005 | 2.07952 | 19 ft | 0 kts | 338° |
| 2026-05-04 09:14 | 41.29001 | 2.07955 | 19 ft | 3 kts | 338° |
| 2026-05-04 09:14 | 41.28976 | 2.07968 | 18 ft | 4 kts | 337° |
| 2026-05-04 09:15 | 41.28951 | 2.07979 | 19 ft | 4 kts | 354° |
| 2026-05-04 09:15 | 41.28926 | 2.07977 | 19 ft | 4 kts | 30° |
| 2026-05-04 09:15 | 41.28912 | 2.07960 | 18 ft | 0 kts | 64° |
| 2026-05-04 09:18 | 41.28918 | 2.07974 | 19 ft | 5 kts | 63° |
| 2026-05-04 09:18 | 41.28946 | 2.08053 | 18 ft | 13 kts | 65° |
| 2026-05-04 09:18 | 41.28922 | 2.08138 | 19 ft | 12 kts | 148° |
| 2026-05-04 09:18 | 41.28813 | 2.08205 | 18 ft | 19 kts | 155° |
| 2026-05-04 09:19 | 41.28718 | 2.08258 | 20 ft | 10 kts | 120° |
| 2026-05-04 09:19 | 41.28734 | 2.08351 | 23 ft | 13 kts | 65° |
| 2026-05-04 09:19 | 41.28780 | 2.08488 | 22 ft | 18 kts | 66° |
| 2026-05-04 09:19 | 41.28833 | 2.08642 | 19 ft | 19 kts | 64° |
| 2026-05-04 09:20 | 41.28903 | 2.08842 | 18 ft | 27 kts | 65° |
| 2026-05-04 09:20 | 41.28976 | 2.09065 | 17 ft | 25 kts | 64° |
| 2026-05-04 09:20 | 41.29048 | 2.09272 | 18 ft | 25 kts | 65° |
| 2026-05-04 09:20 | 41.29117 | 2.09470 | 19 ft | 23 kts | 66° |
| 2026-05-04 09:21 | 41.29185 | 2.09664 | 19 ft | 23 kts | 66° |
| 2026-05-04 09:21 | 41.29250 | 2.09859 | 15 ft | 23 kts | 65° |
| 2026-05-04 09:21 | 41.29276 | 2.10015 | 15 ft | 15 kts | 108° |
| 2026-05-04 09:21 | 41.29242 | 2.10138 | 15 ft | 14 kts | 109° |
| 2026-05-04 09:22 | 41.29250 | 2.10258 | 14 ft | 8 kts | 103° |
| 2026-05-04 09:22 | 41.29212 | 2.10279 | 13 ft | 6 kts | 195° |
| 2026-05-04 09:22 | 41.29181 | 2.10207 | 14 ft | 15 kts | 245° |
| 2026-05-04 09:22 | 41.29071 | 2.09888 | 20 ft | 70 kts | 246° |
| 2026-05-04 09:23 | 41.28781 | 2.09036 | 15 ft | 129 kts | 245° |
| 2026-05-04 09:23 | 41.28351 | 2.07763 | 68 ft | 167 kts | 247° |
| 2026-05-04 09:23 | 41.27774 | 2.06498 | 766 ft | 158 kts | 221° |
| 2026-05-04 09:23 | 41.26747 | 2.06021 | 1414 ft | 161 kts | 184° |
| 2026-05-04 09:25 | 41.23121 | 2.15738 | 4619 ft | 281 kts | 69° |
| 2026-05-04 09:25 | 41.23821 | 2.18186 | 5374 ft | 285 kts | 70° |
| 2026-05-04 09:26 | 41.24512 | 2.20669 | 6153 ft | 289 kts | 71° |
| 2026-05-04 09:26 | 41.25183 | 2.23201 | 6907 ft | 291 kts | 72° |
| 2026-05-04 09:26 | 41.25833 | 2.25766 | 7631 ft | 294 kts | 73° |
| 2026-05-04 09:26 | 41.26468 | 2.28357 | 8355 ft | 298 kts | 74° |
| 2026-05-04 09:27 | 41.27100 | 2.30993 | 9088 ft | 300 kts | 74° |
| 2026-05-04 09:27 | 41.27732 | 2.33659 | 9828 ft | 303 kts | 74° |
| 2026-05-04 09:27 | 41.28374 | 2.36375 | 10248 ft | 317 kts | 74° |
| 2026-05-04 09:27 | 41.29060 | 2.39276 | 10383 ft | 340 kts | 74° |
| 2026-05-04 09:28 | 41.29787 | 2.42362 | 10582 ft | 358 kts | 74° |
| 2026-05-04 09:28 | 41.30542 | 2.45546 | 11098 ft | 364 kts | 74° |
| 2026-05-04 09:28 | 41.31311 | 2.48784 | 11669 ft | 369 kts | 74° |
| 2026-05-04 09:28 | 41.32087 | 2.52053 | 12271 ft | 373 kts | 73° |
| 2026-05-04 09:29 | 41.32875 | 2.55367 | 12877 ft | 378 kts | 73° |
| 2026-05-04 09:29 | 41.33671 | 2.58720 | 13475 ft | 382 kts | 73° |
| 2026-05-04 09:29 | 41.34472 | 2.62106 | 14036 ft | 386 kts | 74° |
| 2026-05-04 09:29 | 41.35277 | 2.65528 | 14569 ft | 389 kts | 74° |
| 2026-05-04 09:30 | 41.36084 | 2.68988 | 15095 ft | 393 kts | 74° |
| 2026-05-04 09:30 | 41.36896 | 2.72473 | 15614 ft | 397 kts | 74° |
| 2026-05-04 09:30 | 41.37719 | 2.76001 | 16120 ft | 400 kts | 74° |
| 2026-05-04 09:30 | 41.38547 | 2.79552 | 16638 ft | 403 kts | 74° |
| 2026-05-04 09:31 | 41.39384 | 2.83133 | 17141 ft | 407 kts | 73° |
| 2026-05-04 09:31 | 41.40226 | 2.86744 | 17624 ft | 410 kts | 74° |
| 2026-05-04 09:31 | 41.41075 | 2.90391 | 18117 ft | 413 kts | 74° |
| 2026-05-04 09:31 | 41.41924 | 2.94057 | 18536 ft | 417 kts | 74° |
| 2026-05-04 09:32 | 41.42785 | 2.97770 | 18924 ft | 420 kts | 74° |
| 2026-05-04 09:32 | 41.43650 | 3.01497 | 19312 ft | 423 kts | 74° |
| 2026-05-04 09:34 | 41.49837 | 3.28400 | 21816 ft | 444 kts | 75° |
| 2026-05-04 09:34 | 41.50736 | 3.32362 | 22170 ft | 447 kts | 75° |
| 2026-05-04 09:34 | 41.51640 | 3.36343 | 22535 ft | 450 kts | 75° |
| 2026-05-04 09:34 | 41.52548 | 3.40346 | 22886 ft | 453 kts | 75° |
| 2026-05-04 09:35 | 41.53463 | 3.44381 | 23258 ft | 456 kts | 75° |
| 2026-05-04 09:35 | 41.54386 | 3.48448 | 23606 ft | 459 kts | 75° |
| 2026-05-04 09:35 | 41.55232 | 3.52563 | 23906 ft | 461 kts | 78° |
| 2026-05-04 09:35 | 41.55970 | 3.56744 | 24219 ft | 463 kts | 80° |
| 2026-05-04 09:37 | 41.60420 | 3.85323 | 26195 ft | 480 kts | 80° |
| 2026-05-04 09:37 | 41.61145 | 3.89699 | 26493 ft | 483 kts | 80° |
| 2026-05-04 09:38 | 41.61868 | 3.94094 | 26780 ft | 485 kts | 80° |
| 2026-05-04 09:38 | 41.62585 | 3.98509 | 27062 ft | 488 kts | 80° |
| 2026-05-04 09:38 | 41.63303 | 4.02961 | 27342 ft | 490 kts | 80° |
| 2026-05-04 09:38 | 41.64015 | 4.07421 | 27624 ft | 492 kts | 81° |
| 2026-05-04 09:39 | 41.64727 | 4.11911 | 27900 ft | 495 kts | 81° |
| 2026-05-04 09:39 | 41.65445 | 4.16423 | 28180 ft | 497 kts | 81° |
| 2026-05-04 09:39 | 41.66167 | 4.20953 | 28474 ft | 499 kts | 81° |
| 2026-05-04 09:39 | 41.66892 | 4.25507 | 28760 ft | 502 kts | 81° |
| 2026-05-04 09:40 | 41.67620 | 4.30080 | 29038 ft | 504 kts | 81° |
| 2026-05-04 09:40 | 41.68347 | 4.34676 | 29290 ft | 506 kts | 81° |
| 2026-05-04 09:40 | 41.69073 | 4.39286 | 29511 ft | 508 kts | 81° |
| 2026-05-04 09:40 | 41.69800 | 4.43916 | 29733 ft | 509 kts | 81° |
| 2026-05-04 09:41 | 41.70527 | 4.48564 | 29947 ft | 511 kts | 81° |
| 2026-05-04 09:42 | 41.81716 | 4.77717 | 31367 ft | 516 kts | 43° |
| 2026-05-04 09:43 | 41.84247 | 4.81048 | 31618 ft | 516 kts | 43° |
| 2026-05-04 09:43 | 41.86801 | 4.84421 | 31855 ft | 515 kts | 43° |
| 2026-05-04 09:43 | 41.89386 | 4.87843 | 32110 ft | 515 kts | 43° |
| 2026-05-04 09:43 | 41.91934 | 4.91223 | 32374 ft | 514 kts | 43° |
| 2026-05-04 09:44 | 41.94479 | 4.94605 | 32640 ft | 514 kts | 43° |
| 2026-05-04 09:44 | 41.97012 | 4.97978 | 32888 ft | 514 kts | 43° |
| 2026-05-04 09:44 | 41.99520 | 5.01320 | 33138 ft | 513 kts | 43° |
| 2026-05-04 09:46 | 42.17197 | 5.24963 | 34734 ft | 510 kts | 42° |
| 2026-05-04 09:46 | 42.19711 | 5.28339 | 34968 ft | 509 kts | 42° |
| 2026-05-04 09:46 | 42.22217 | 5.31711 | 35173 ft | 509 kts | 42° |
| 2026-05-04 09:47 | 42.24723 | 5.35091 | 35367 ft | 509 kts | 42° |
| 2026-05-04 09:47 | 42.27220 | 5.38460 | 35561 ft | 509 kts | 42° |
| 2026-05-04 09:49 | 42.44705 | 5.62133 | 36049 ft | 506 kts | 42° |
| 2026-05-04 09:49 | 42.47192 | 5.65516 | 36048 ft | 506 kts | 42° |
| 2026-05-04 09:51 | 42.64506 | 5.89224 | 36070 ft | 505 kts | 43° |
| 2026-05-04 09:51 | 42.69440 | 5.95997 | 36079 ft | 504 kts | 43° |
| 2026-05-04 09:52 | 42.74340 | 6.02742 | 36082 ft | 504 kts | 43° |
| 2026-05-04 09:52 | 42.79250 | 6.09533 | 36097 ft | 503 kts | 43° |
| 2026-05-04 09:53 | 42.84150 | 6.16324 | 36098 ft | 502 kts | 43° |
| 2026-05-04 09:53 | 42.89364 | 6.22580 | 36104 ft | 498 kts | 37° |
| 2026-05-04 09:54 | 42.94677 | 6.28657 | 36105 ft | 498 kts | 37° |
| 2026-05-04 09:54 | 42.99964 | 6.34736 | 36105 ft | 497 kts | 37° |
| 2026-05-04 09:55 | 43.05241 | 6.40821 | 36108 ft | 496 kts | 37° |
| 2026-05-04 09:55 | 43.10512 | 6.46910 | 36114 ft | 495 kts | 37° |
| 2026-05-04 09:56 | 43.15780 | 6.53002 | 36114 ft | 495 kts | 37° |
| 2026-05-04 09:56 | 43.20986 | 6.59154 | 36110 ft | 496 kts | 42° |
| 2026-05-04 09:57 | 43.25329 | 6.66532 | 36113 ft | 498 kts | 53° |
| 2026-05-04 09:57 | 43.29389 | 6.74242 | 36112 ft | 498 kts | 52° |
| 2026-05-04 09:58 | 43.33460 | 6.81951 | 36121 ft | 498 kts | 52° |
| 2026-05-04 09:58 | 43.37517 | 6.89664 | 36123 ft | 498 kts | 52° |
| 2026-05-04 10:00 | 43.53632 | 7.20517 | 36128 ft | 497 kts | 53° |
| 2026-05-04 10:04 | 43.81600 | 7.74456 | 36144 ft | 489 kts | 45° |
| 2026-05-04 10:04 | 43.86682 | 7.80602 | 36156 ft | 484 kts | 34° |
| 2026-05-04 10:05 | 43.92010 | 7.86299 | 36166 ft | 484 kts | 35° |
| 2026-05-04 10:05 | 43.97128 | 7.92352 | 36175 ft | 485 kts | 42° |
| 2026-05-04 10:06 | 44.01947 | 7.98923 | 36190 ft | 485 kts | 42° |
| 2026-05-04 10:06 | 44.06749 | 8.05490 | 36181 ft | 484 kts | 42° |
| 2026-05-04 10:08 | 44.23460 | 8.28392 | 36156 ft | 481 kts | 43° |
| 2026-05-04 10:08 | 44.28216 | 8.34944 | 36156 ft | 480 kts | 43° |
| 2026-05-04 10:09 | 44.32964 | 8.41509 | 36169 ft | 479 kts | 43° |
| 2026-05-04 10:09 | 44.37698 | 8.48064 | 36174 ft | 479 kts | 43° |
| 2026-05-04 10:10 | 44.42421 | 8.54620 | 36175 ft | 478 kts | 43° |
| 2026-05-04 10:10 | 44.47130 | 8.61184 | 36178 ft | 478 kts | 43° |
| 2026-05-04 10:11 | 44.51836 | 8.67746 | 36178 ft | 477 kts | 43° |
| 2026-05-04 10:11 | 44.56539 | 8.74315 | 36174 ft | 477 kts | 44° |
| 2026-05-04 10:12 | 44.61234 | 8.80891 | 36175 ft | 477 kts | 43° |
| 2026-05-04 10:12 | 44.65925 | 8.87481 | 36169 ft | 477 kts | 44° |
| 2026-05-04 10:13 | 44.70602 | 8.94087 | 36166 ft | 476 kts | 44° |
| 2026-05-04 10:13 | 44.75273 | 9.00690 | 36161 ft | 476 kts | 44° |
| 2026-05-04 10:14 | 44.79944 | 9.07296 | 36153 ft | 476 kts | 44° |
| 2026-05-04 10:16 | 44.98564 | 9.33776 | 36151 ft | 474 kts | 44° |
| 2026-05-04 10:16 | 45.02415 | 9.39306 | 36155 ft | 474 kts | 44° |
| 2026-05-04 10:17 | 45.07033 | 9.45941 | 36158 ft | 473 kts | 44° |
| 2026-05-04 10:19 | 45.24644 | 9.73490 | 36150 ft | 471 kts | 50° |
| 2026-05-04 10:19 | 45.28743 | 9.80741 | 36155 ft | 470 kts | 50° |
| 2026-05-04 10:20 | 45.32832 | 9.87991 | 36146 ft | 470 kts | 50° |
| 2026-05-04 10:20 | 45.36911 | 9.95244 | 36133 ft | 469 kts | 50° |
| 2026-05-04 10:21 | 45.40980 | 10.02508 | 36131 ft | 469 kts | 51° |
| 2026-05-04 10:21 | 45.45038 | 10.09774 | 36127 ft | 469 kts | 50° |
| 2026-05-04 10:22 | 45.51119 | 10.20669 | 36126 ft | 468 kts | 51° |
| 2026-05-04 10:23 | 45.55166 | 10.27948 | 36130 ft | 468 kts | 51° |
| 2026-05-04 10:25 | 45.71265 | 10.57113 | 36143 ft | 466 kts | 51° |
| 2026-05-04 10:25 | 45.75265 | 10.64412 | 36152 ft | 466 kts | 51° |
| 2026-05-04 10:26 | 45.79262 | 10.71731 | 36155 ft | 466 kts | 51° |
| 2026-05-04 10:26 | 45.83258 | 10.79046 | 36154 ft | 466 kts | 51° |
| 2026-05-04 10:27 | 45.87244 | 10.86359 | 36153 ft | 466 kts | 51° |
| 2026-05-04 10:27 | 45.91227 | 10.93705 | 36159 ft | 466 kts | 51° |
| 2026-05-04 10:28 | 45.95206 | 11.01059 | 36157 ft | 466 kts | 51° |
| 2026-05-04 10:28 | 45.99177 | 11.08418 | 36178 ft | 466 kts | 51° |
| 2026-05-04 10:29 | 46.03149 | 11.15781 | 36187 ft | 465 kts | 51° |
| 2026-05-04 10:29 | 46.06968 | 11.23303 | 36197 ft | 465 kts | 54° |
| 2026-05-04 10:30 | 46.10589 | 11.31032 | 36197 ft | 465 kts | 55° |
| 2026-05-04 10:30 | 46.14193 | 11.38771 | 36193 ft | 465 kts | 55° |
| 2026-05-04 10:31 | 46.17834 | 11.46462 | 36178 ft | 464 kts | 54° |
| 2026-05-04 10:32 | 46.30548 | 11.73311 | 36123 ft | 462 kts | 54° |
| 2026-05-04 10:33 | 46.34177 | 11.80999 | 36117 ft | 463 kts | 54° |
| 2026-05-04 10:33 | 46.37791 | 11.88714 | 36115 ft | 462 kts | 55° |
| 2026-05-04 10:34 | 46.41400 | 11.96435 | 36118 ft | 463 kts | 54° |
| 2026-05-04 10:34 | 46.44999 | 12.04163 | 36132 ft | 462 kts | 55° |
| 2026-05-04 10:35 | 46.48594 | 12.11890 | 36142 ft | 462 kts | 55° |
| 2026-05-04 10:35 | 46.52182 | 12.19621 | 36154 ft | 461 kts | 55° |
| 2026-05-04 10:36 | 46.55761 | 12.27352 | 36157 ft | 461 kts | 55° |
| 2026-05-04 10:36 | 46.59325 | 12.35089 | 36166 ft | 461 kts | 55° |
| 2026-05-04 10:37 | 46.62880 | 12.42835 | 36165 ft | 460 kts | 55° |
| 2026-05-04 10:37 | 46.66427 | 12.50587 | 36156 ft | 460 kts | 55° |
| 2026-05-04 10:39 | 46.70059 | 12.77369 | 36118 ft | 461 kts | 92° |
| 2026-05-04 10:39 | 46.69906 | 12.82047 | 36116 ft | 461 kts | 92° |
| 2026-05-04 10:40 | 46.69598 | 12.91377 | 36113 ft | 461 kts | 92° |
| 2026-05-04 10:40 | 46.69283 | 13.00707 | 36110 ft | 461 kts | 92° |
| 2026-05-04 10:41 | 46.68958 | 13.10036 | 36114 ft | 461 kts | 92° |
| 2026-05-04 10:41 | 46.68645 | 13.19313 | 36115 ft | 460 kts | 89° |
| 2026-05-04 10:42 | 46.69530 | 13.28477 | 36112 ft | 457 kts | 71° |
| 2026-05-04 10:42 | 46.72136 | 13.36873 | 36110 ft | 455 kts | 61° |
| 2026-05-04 10:43 | 46.75051 | 13.45068 | 36106 ft | 455 kts | 61° |
| 2026-05-04 10:45 | 46.86615 | 13.77897 | 36100 ft | 454 kts | 61° |
| 2026-05-04 10:45 | 46.89489 | 13.86089 | 36099 ft | 453 kts | 61° |
| 2026-05-04 10:46 | 46.92347 | 13.94313 | 36102 ft | 453 kts | 61° |
| 2026-05-04 10:46 | 46.95191 | 14.02512 | 36102 ft | 452 kts | 61° |
| 2026-05-04 10:47 | 46.98037 | 14.10726 | 36101 ft | 452 kts | 61° |
| 2026-05-04 10:47 | 47.00873 | 14.18924 | 36100 ft | 451 kts | 61° |
| 2026-05-04 10:49 | 47.11777 | 14.51919 | 36101 ft | 451 kts | 72° |
| 2026-05-04 10:50 | 47.13326 | 14.60854 | 36102 ft | 450 kts | 73° |
| 2026-05-04 10:52 | 47.19396 | 14.96467 | 36098 ft | 448 kts | 73° |
| 2026-05-04 10:52 | 47.20895 | 15.05348 | 36093 ft | 447 kts | 73° |
| 2026-05-04 10:54 | 47.26099 | 15.36609 | 31956 ft | 456 kts | 74° |
| 2026-05-04 10:54 | 47.26844 | 15.41160 | 31019 ft | 458 kts | 74° |
| 2026-05-04 10:56 | 47.32156 | 15.73770 | 22978 ft | 472 kts | 76° |
| 2026-05-04 10:56 | 47.32905 | 15.78435 | 22152 ft | 463 kts | 76° |
| 2026-05-04 10:56 | 47.33640 | 15.83019 | 21330 ft | 456 kts | 76° |
| 2026-05-04 10:57 | 47.34360 | 15.87538 | 20534 ft | 450 kts | 76° |
| 2026-05-04 10:57 | 47.35149 | 15.91956 | 19744 ft | 443 kts | 70° |
| 2026-05-04 10:57 | 47.35990 | 15.94750 | 19220 ft | 438 kts | 61° |
| 2026-05-04 10:57 | 47.37728 | 15.98399 | 18479 ft | 432 kts | 48° |
| 2026-05-04 10:58 | 47.39918 | 16.01299 | 17729 ft | 427 kts | 35° |
| 2026-05-04 10:58 | 47.42519 | 16.03415 | 17187 ft | 420 kts | 23° |
| 2026-05-04 10:58 | 47.45307 | 16.04635 | 16602 ft | 417 kts | 11° |
| 2026-05-04 10:58 | 47.48184 | 16.05114 | 16025 ft | 416 kts | 6° |
| 2026-05-04 10:59 | 47.51056 | 16.05504 | 15452 ft | 412 kts | 6° |
| 2026-05-04 10:59 | 47.53913 | 16.05885 | 14889 ft | 410 kts | 6° |
| 2026-05-04 10:59 | 47.56748 | 16.06265 | 14327 ft | 408 kts | 6° |
| 2026-05-04 10:59 | 47.59529 | 16.06638 | 13758 ft | 405 kts | 6° |
| 2026-05-04 11:00 | 47.62331 | 16.07013 | 13171 ft | 403 kts | 6° |
| 2026-05-04 11:01 | 47.80643 | 16.09483 | 10761 ft | 316 kts | 6° |
| 2026-05-04 11:02 | 47.82772 | 16.09770 | 10497 ft | 302 kts | 6° |
| 2026-05-04 11:02 | 47.84848 | 16.10054 | 10230 ft | 296 kts | 6° |
| 2026-05-04 11:05 | 48.13330 | 16.13965 | 6220 ft | 295 kts | 5° |
| 2026-05-04 11:06 | 48.15311 | 16.14291 | 6093 ft | 274 kts | 10° |
| 2026-05-04 11:06 | 48.17062 | 16.15124 | 5947 ft | 253 kts | 24° |
| 2026-05-04 11:06 | 48.18639 | 16.16119 | 5892 ft | 242 kts | 24° |
| 2026-05-04 11:06 | 48.20173 | 16.17074 | 5776 ft | 237 kts | 24° |
| 2026-05-04 11:08 | 48.19691 | 16.30421 | 3900 ft | 205 kts | 120° |
| 2026-05-04 11:10 | 48.15908 | 16.42148 | 2192 ft | 147 kts | 119° |
| 2026-05-04 11:12 | 48.12908 | 16.51464 | 870 ft | 142 kts | 120° |
| 2026-05-04 11:12 | 48.12476 | 16.52783 | 721 ft | 141 kts | 120° |
| 2026-05-04 11:12 | 48.12042 | 16.54071 | 629 ft | 131 kts | 118° |
| 2026-05-04 11:12 | 48.11711 | 16.55086 | 620 ft | 71 kts | 116° |
| 2026-05-04 11:13 | 48.11538 | 16.55621 | 616 ft | 40 kts | 115° |
| 2026-05-04 11:13 | 48.11502 | 16.55866 | 609 ft | 21 kts | 90° |
| 2026-05-04 11:13 | 48.11508 | 16.56071 | 609 ft | 18 kts | 78° |
| 2026-05-04 11:13 | 48.11553 | 16.56206 | 613 ft | 14 kts | 93° |
| 2026-05-04 11:14 | 48.11512 | 16.56344 | 614 ft | 18 kts | 116° |
| 2026-05-04 11:14 | 48.11451 | 16.56532 | 625 ft | 21 kts | 116° |
| 2026-05-04 11:14 | 48.11385 | 16.56734 | 623 ft | 22 kts | 116° |
| 2026-05-04 11:16 | 48.11640 | 16.57416 | 616 ft | 15 kts | 344° |
| 2026-05-04 11:16 | 48.11740 | 16.57374 | 611 ft | 15 kts | 344° |
| 2026-05-04 11:16 | 48.11818 | 16.57318 | 618 ft | 11 kts | 308° |
| 2026-05-04 11:17 | 48.11852 | 16.57213 | 616 ft | 12 kts | 283° |
| 2026-05-04 11:17 | 48.11872 | 16.57091 | 617 ft | 13 kts | 295° |
| 2026-05-04 11:19 | 48.11936 | 16.56662 | 623 ft | 0 kts | 206° |